ADDS TAF Data INFO
IDs: Format: Raw Decoded Include METARs

Data at: 0653 UTC 19 Nov 2017

KLVS 190553Z AUTO 08004KT 10SM CLR M06/M09 A3032 RMK AO2 SLP262 T10561094 10039 21056 53001

KLVS 190524Z 1906/2006 16010KT P6SM SKC
  FM192000 19012G21KT P6SM BKN250
  FM200100 18009KT P6SM BKN200